sensor_id;sensor_type;location;lat;lon;timestamp;temperature;humidity
19755;DHT22;10036;47.812;9.274;2023-06-19T00:00:48;20.50;99.90
19755;DHT22;10036;47.812;9.274;2023-06-19T00:03:14;20.40;99.90
19755;DHT22;10036;47.812;9.274;2023-06-19T00:05:41;20.40;99.90
19755;DHT22;10036;47.812;9.274;2023-06-19T00:08:08;20.30;99.90
19755;DHT22;10036;47.812;9.274;2023-06-19T00:10:35;20.00;99.90
19755;DHT22;10036;47.812;9.274;2023-06-19T00:13:03;19.80;99.90
19755;DHT22;10036;47.812;9.274;2023-06-19T00:15:30;20.00;99.90
19755;DHT22;10036;47.812;9.274;2023-06-19T00:17:57;19.90;99.90
19755;DHT22;10036;47.812;9.274;2023-06-19T00:20:24;20.00;99.90
19755;DHT22;10036;47.812;9.274;2023-06-19T00:22:51;20.00;99.90
19755;DHT22;10036;47.812;9.274;2023-06-19T00:25:18;20.20;99.90
19755;DHT22;10036;47.812;9.274;2023-06-19T00:27:46;20.10;99.90
19755;DHT22;10036;47.812;9.274;2023-06-19T00:30:15;20.10;99.90
19755;DHT22;10036;47.812;9.274;2023-06-19T00:32:42;20.10;99.90
19755;DHT22;10036;47.812;9.274;2023-06-19T00:35:16;20.20;99.90
19755;DHT22;10036;47.812;9.274;2023-06-19T00:37:43;20.40;99.90
19755;DHT22;10036;47.812;9.274;2023-06-19T00:40:27;20.30;99.90
19755;DHT22;10036;47.812;9.274;2023-06-19T00:42:54;20.30;99.90
19755;DHT22;10036;47.812;9.274;2023-06-19T00:45:23;20.20;99.90
19755;DHT22;10036;47.812;9.274;2023-06-19T00:47:50;20.30;99.90
19755;DHT22;10036;47.812;9.274;2023-06-19T00:50:17;20.20;99.90
19755;DHT22;10036;47.812;9.274;2023-06-19T00:52:44;20.10;99.90
19755;DHT22;10036;47.812;9.274;2023-06-19T00:55:12;20.20;99.90
19755;DHT22;10036;47.812;9.274;2023-06-19T00:57:40;20.20;99.90
19755;DHT22;10036;47.812;9.274;2023-06-19T01:00:08;20.00;99.90
19755;DHT22;10036;47.812;9.274;2023-06-19T01:02:39;20.10;99.90
19755;DHT22;10036;47.812;9.274;2023-06-19T01:05:06;20.00;99.90
19755;DHT22;10036;47.812;9.274;2023-06-19T01:07:40;19.80;99.90
19755;DHT22;10036;47.812;9.274;2023-06-19T01:10:12;19.70;99.90
19755;DHT22;10036;47.812;9.274;2023-06-19T01:12:44;19.70;99.90
19755;DHT22;10036;47.812;9.274;2023-06-19T01:15:16;19.90;99.90
19755;DHT22;10036;47.812;9.274;2023-06-19T01:17:46;19.80;99.90
19755;DHT22;10036;47.812;9.274;2023-06-19T01:20:13;19.60;99.90
19755;DHT22;10036;47.812;9.274;2023-06-19T01:22:42;19.40;99.90
19755;DHT22;10036;47.812;9.274;2023-06-19T01:25:10;19.40;99.90
19755;DHT22;10036;47.812;9.274;2023-06-19T01:27:39;19.60;99.90
19755;DHT22;10036;47.812;9.274;2023-06-19T01:30:07;19.40;99.90
19755;DHT22;10036;47.812;9.274;2023-06-19T01:32:41;19.40;99.90
19755;DHT22;10036;47.812;9.274;2023-06-19T01:35:11;19.10;99.90
19755;DHT22;10036;47.812;9.274;2023-06-19T01:37:41;19.20;99.90
19755;DHT22;10036;47.812;9.274;2023-06-19T01:40:10;19.40;99.90
19755;DHT22;10036;47.812;9.274;2023-06-19T01:42:39;19.50;99.90
19755;DHT22;10036;47.812;9.274;2023-06-19T01:45:07;19.60;99.90
19755;DHT22;10036;47.812;9.274;2023-06-19T01:47:34;19.70;99.90
19755;DHT22;10036;47.812;9.274;2023-06-19T01:50:02;19.60;99.90
19755;DHT22;10036;47.812;9.274;2023-06-19T01:52:29;19.70;99.90
19755;DHT22;10036;47.812;9.274;2023-06-19T01:54:57;19.80;99.90
19755;DHT22;10036;47.812;9.274;2023-06-19T01:57:24;19.80;99.90
19755;DHT22;10036;47.812;9.274;2023-06-19T01:59:51;19.80;99.90
19755;DHT22;10036;47.812;9.274;2023-06-19T02:02:18;19.80;99.90
19755;DHT22;10036;47.812;9.274;2023-06-19T02:04:45;19.70;99.90
19755;DHT22;10036;47.812;9.274;2023-06-19T02:07:12;19.60;99.90
19755;DHT22;10036;47.812;9.274;2023-06-19T02:09:39;19.50;99.90
19755;DHT22;10036;47.812;9.274;2023-06-19T02:12:08;19.20;99.90
19755;DHT22;10036;47.812;9.274;2023-06-19T02:14:35;19.50;99.90
19755;DHT22;10036;47.812;9.274;2023-06-19T02:17:02;19.30;99.90
19755;DHT22;10036;47.812;9.274;2023-06-19T02:19:29;19.40;99.90
19755;DHT22;10036;47.812;9.274;2023-06-19T02:21:56;19.00;99.90
19755;DHT22;10036;47.812;9.274;2023-06-19T02:24:23;19.00;99.90
19755;DHT22;10036;47.812;9.274;2023-06-19T02:26:52;19.10;99.90
19755;DHT22;10036;47.812;9.274;2023-06-19T02:29:20;19.00;99.90
19755;DHT22;10036;47.812;9.274;2023-06-19T02:31:47;19.10;99.90
19755;DHT22;10036;47.812;9.274;2023-06-19T02:34:14;19.20;99.90
19755;DHT22;10036;47.812;9.274;2023-06-19T02:36:40;19.20;99.90
19755;DHT22;10036;47.812;9.274;2023-06-19T02:39:09;19.10;99.90
19755;DHT22;10036;47.812;9.274;2023-06-19T02:41:35;19.00;99.90
19755;DHT22;10036;47.812;9.274;2023-06-19T02:44:03;19.10;99.90
19755;DHT22;10036;47.812;9.274;2023-06-19T02:46:32;19.00;99.90
19755;DHT22;10036;47.812;9.274;2023-06-19T02:48:58;19.20;99.90
19755;DHT22;10036;47.812;9.274;2023-06-19T02:51:26;19.10;99.90
19755;DHT22;10036;47.812;9.274;2023-06-19T02:53:53;19.20;99.90
19755;DHT22;10036;47.812;9.274;2023-06-19T02:56:20;19.00;99.90
19755;DHT22;10036;47.812;9.274;2023-06-19T02:58:46;19.00;99.90
19755;DHT22;10036;47.812;9.274;2023-06-19T03:01:13;19.10;99.90
19755;DHT22;10036;47.812;9.274;2023-06-19T03:03:41;19.10;99.90
19755;DHT22;10036;47.812;9.274;2023-06-19T03:06:08;19.20;99.90
19755;DHT22;10036;47.812;9.274;2023-06-19T03:08:35;19.30;99.90
19755;DHT22;10036;47.812;9.274;2023-06-19T03:11:02;19.20;99.90
19755;DHT22;10036;47.812;9.274;2023-06-19T03:13:35;19.40;99.90
19755;DHT22;10036;47.812;9.274;2023-06-19T03:16:02;19.50;99.90
19755;DHT22;10036;47.812;9.274;2023-06-19T03:18:29;19.60;99.90
19755;DHT22;10036;47.812;9.274;2023-06-19T03:20:57;19.50;99.90
19755;DHT22;10036;47.812;9.274;2023-06-19T03:23:24;19.50;99.90
19755;DHT22;10036;47.812;9.274;2023-06-19T03:25:51;19.30;99.90
19755;DHT22;10036;47.812;9.274;2023-06-19T03:28:17;19.30;99.90
19755;DHT22;10036;47.812;9.274;2023-06-19T03:30:44;19.30;99.90
19755;DHT22;10036;47.812;9.274;2023-06-19T03:33:11;19.10;99.90
19755;DHT22;10036;47.812;9.274;2023-06-19T03:35:38;19.10;99.90
19755;DHT22;10036;47.812;9.274;2023-06-19T03:38:07;19.20;99.90
19755;DHT22;10036;47.812;9.274;2023-06-19T03:40:34;19.20;99.90
19755;DHT22;10036;47.812;9.274;2023-06-19T03:43:01;19.20;99.90
19755;DHT22;10036;47.812;9.274;2023-06-19T03:45:28;19.20;99.90
19755;DHT22;10036;47.812;9.274;2023-06-19T03:47:54;19.40;99.90
19755;DHT22;10036;47.812;9.274;2023-06-19T03:50:21;19.40;99.90
19755;DHT22;10036;47.812;9.274;2023-06-19T03:52:48;19.40;99.90
19755;DHT22;10036;47.812;9.274;2023-06-19T03:55:19;19.30;99.90
19755;DHT22;10036;47.812;9.274;2023-06-19T03:57:46;19.40;99.90
19755;DHT22;10036;47.812;9.274;2023-06-19T04:00:14;19.40;99.90
19755;DHT22;10036;47.812;9.274;2023-06-19T04:02:41;19.20;99.90
19755;DHT22;10036;47.812;9.274;2023-06-19T04:05:08;19.20;99.90
19755;DHT22;10036;47.812;9.274;2023-06-19T04:07:35;19.30;99.90
19755;DHT22;10036;47.812;9.274;2023-06-19T04:10:02;19.30;99.90
19755;DHT22;10036;47.812;9.274;2023-06-19T04:12:31;19.10;99.90
19755;DHT22;10036;47.812;9.274;2023-06-19T04:14:58;19.10;99.90
19755;DHT22;10036;47.812;9.274;2023-06-19T04:17:24;19.10;99.90
19755;DHT22;10036;47.812;9.274;2023-06-19T04:19:51;19.10;99.90
19755;DHT22;10036;47.812;9.274;2023-06-19T04:22:18;19.20;99.90
19755;DHT22;10036;47.812;9.274;2023-06-19T04:24:45;19.20;99.90
19755;DHT22;10036;47.812;9.274;2023-06-19T04:27:12;19.20;99.90
19755;DHT22;10036;47.812;9.274;2023-06-19T04:29:40;19.10;99.90
19755;DHT22;10036;47.812;9.274;2023-06-19T04:32:07;19.00;99.90
19755;DHT22;10036;47.812;9.274;2023-06-19T04:34:37;18.90;99.90
19755;DHT22;10036;47.812;9.274;2023-06-19T04:37:05;19.00;99.90
19755;DHT22;10036;47.812;9.274;2023-06-19T04:39:32;19.00;99.90
19755;DHT22;10036;47.812;9.274;2023-06-19T04:41:59;19.00;99.90
19755;DHT22;10036;47.812;9.274;2023-06-19T04:44:26;19.10;99.90
19755;DHT22;10036;47.812;9.274;2023-06-19T04:47:00;19.10;99.90
19755;DHT22;10036;47.812;9.274;2023-06-19T04:49:28;19.30;99.90
19755;DHT22;10036;47.812;9.274;2023-06-19T04:51:56;19.30;99.90
19755;DHT22;10036;47.812;9.274;2023-06-19T04:54:23;19.30;99.90
19755;DHT22;10036;47.812;9.274;2023-06-19T04:56:50;19.30;99.90
19755;DHT22;10036;47.812;9.274;2023-06-19T04:59:17;19.30;99.90
19755;DHT22;10036;47.812;9.274;2023-06-19T05:01:44;19.30;99.90
19755;DHT22;10036;47.812;9.274;2023-06-19T05:04:13;19.30;99.90
19755;DHT22;10036;47.812;9.274;2023-06-19T05:06:40;19.30;99.90
19755;DHT22;10036;47.812;9.274;2023-06-19T05:09:08;19.30;99.90
19755;DHT22;10036;47.812;9.274;2023-06-19T05:11:35;19.30;99.90
19755;DHT22;10036;47.812;9.274;2023-06-19T05:14:02;19.30;99.90
19755;DHT22;10036;47.812;9.274;2023-06-19T05:16:28;19.40;99.90
19755;DHT22;10036;47.812;9.274;2023-06-19T05:18:55;19.50;99.90
19755;DHT22;10036;47.812;9.274;2023-06-19T05:21:24;19.50;99.90
19755;DHT22;10036;47.812;9.274;2023-06-19T05:23:50;19.50;99.90
19755;DHT22;10036;47.812;9.274;2023-06-19T05:26:18;19.40;99.90
19755;DHT22;10036;47.812;9.274;2023-06-19T05:28:45;19.50;99.90
19755;DHT22;10036;47.812;9.274;2023-06-19T05:31:12;19.40;99.90
19755;DHT22;10036;47.812;9.274;2023-06-19T05:33:40;19.50;99.90
19755;DHT22;10036;47.812;9.274;2023-06-19T05:36:07;19.50;99.90
19755;DHT22;10036;47.812;9.274;2023-06-19T05:38:35;19.40;99.90
19755;DHT22;10036;47.812;9.274;2023-06-19T05:41:02;19.50;99.90
19755;DHT22;10036;47.812;9.274;2023-06-19T05:43:29;19.50;99.90
19755;DHT22;10036;47.812;9.274;2023-06-19T05:45:56;19.40;99.90
19755;DHT22;10036;47.812;9.274;2023-06-19T05:48:24;19.50;99.90
19755;DHT22;10036;47.812;9.274;2023-06-19T05:50:51;19.50;99.90
19755;DHT22;10036;47.812;9.274;2023-06-19T05:53:18;19.50;99.90
19755;DHT22;10036;47.812;9.274;2023-06-19T05:55:46;19.40;99.90
19755;DHT22;10036;47.812;9.274;2023-06-19T05:58:13;19.20;99.90
19755;DHT22;10036;47.812;9.274;2023-06-19T06:00:40;19.30;99.90
19755;DHT22;10036;47.812;9.274;2023-06-19T06:03:07;19.30;99.90
19755;DHT22;10036;47.812;9.274;2023-06-19T06:05:34;19.40;99.90
19755;DHT22;10036;47.812;9.274;2023-06-19T06:08:02;19.50;99.90
19755;DHT22;10036;47.812;9.274;2023-06-19T06:10:28;19.20;99.90
19755;DHT22;10036;47.812;9.274;2023-06-19T06:12:57;19.20;99.90
19755;DHT22;10036;47.812;9.274;2023-06-19T06:15:24;19.30;99.90
19755;DHT22;10036;47.812;9.274;2023-06-19T06:17:51;19.30;99.90
19755;DHT22;10036;47.812;9.274;2023-06-19T06:20:17;19.40;99.90
19755;DHT22;10036;47.812;9.274;2023-06-19T06:22:44;19.30;99.90
19755;DHT22;10036;47.812;9.274;2023-06-19T06:25:11;19.40;99.90
19755;DHT22;10036;47.812;9.274;2023-06-19T06:27:38;19.40;99.90
19755;DHT22;10036;47.812;9.274;2023-06-19T06:30:07;19.40;99.90
19755;DHT22;10036;47.812;9.274;2023-06-19T06:32:34;19.50;99.90
19755;DHT22;10036;47.812;9.274;2023-06-19T06:35:01;19.50;99.90
19755;DHT22;10036;47.812;9.274;2023-06-19T06:37:28;19.50;99.90
19755;DHT22;10036;47.812;9.274;2023-06-19T06:39:55;19.60;99.90
19755;DHT22;10036;47.812;9.274;2023-06-19T06:42:22;19.80;99.90
19755;DHT22;10036;47.812;9.274;2023-06-19T06:44:49;19.90;99.90
19755;DHT22;10036;47.812;9.274;2023-06-19T06:47:17;19.80;99.90
19755;DHT22;10036;47.812;9.274;2023-06-19T06:49:44;19.80;99.90
19755;DHT22;10036;47.812;9.274;2023-06-19T06:52:11;19.80;99.90
19755;DHT22;10036;47.812;9.274;2023-06-19T06:54:39;19.90;99.90
19755;DHT22;10036;47.812;9.274;2023-06-19T06:57:06;20.00;99.90
19755;DHT22;10036;47.812;9.274;2023-06-19T06:59:36;20.00;99.90
19755;DHT22;10036;47.812;9.274;2023-06-19T07:02:03;20.10;99.90
19755;DHT22;10036;47.812;9.274;2023-06-19T07:04:31;20.30;99.90
19755;DHT22;10036;47.812;9.274;2023-06-19T07:06:58;20.20;99.90
19755;DHT22;10036;47.812;9.274;2023-06-19T07:09:25;20.40;99.90
19755;DHT22;10036;47.812;9.274;2023-06-19T07:11:52;20.30;99.90
19755;DHT22;10036;47.812;9.274;2023-06-19T07:14:19;20.30;99.90
19755;DHT22;10036;47.812;9.274;2023-06-19T07:16:46;20.20;99.90
19755;DHT22;10036;47.812;9.274;2023-06-19T07:19:13;20.30;99.90
19755;DHT22;10036;47.812;9.274;2023-06-19T07:21:41;20.30;99.90
19755;DHT22;10036;47.812;9.274;2023-06-19T07:24:08;20.40;99.90
19755;DHT22;10036;47.812;9.274;2023-06-19T07:26:35;20.40;99.90
19755;DHT22;10036;47.812;9.274;2023-06-19T07:29:02;20.40;99.90
19755;DHT22;10036;47.812;9.274;2023-06-19T07:31:29;20.50;99.90
19755;DHT22;10036;47.812;9.274;2023-06-19T07:33:56;20.70;99.90
19755;DHT22;10036;47.812;9.274;2023-06-19T07:36:22;20.70;99.90
19755;DHT22;10036;47.812;9.274;2023-06-19T07:38:52;20.70;99.90
19755;DHT22;10036;47.812;9.274;2023-06-19T07:41:19;20.60;99.90
19755;DHT22;10036;47.812;9.274;2023-06-19T07:43:45;20.70;99.90
19755;DHT22;10036;47.812;9.274;2023-06-19T07:46:12;20.70;99.90
19755;DHT22;10036;47.812;9.274;2023-06-19T07:48:40;20.80;99.90
19755;DHT22;10036;47.812;9.274;2023-06-19T07:51:07;20.90;99.90
19755;DHT22;10036;47.812;9.274;2023-06-19T07:53:35;20.90;99.90
19755;DHT22;10036;47.812;9.274;2023-06-19T07:56:04;21.10;99.90
19755;DHT22;10036;47.812;9.274;2023-06-19T07:58:30;21.20;99.90
19755;DHT22;10036;47.812;9.274;2023-06-19T08:00:57;21.30;99.90
19755;DHT22;10036;47.812;9.274;2023-06-19T08:03:24;21.30;99.90
19755;DHT22;10036;47.812;9.274;2023-06-19T08:05:51;21.30;99.90
19755;DHT22;10036;47.812;9.274;2023-06-19T08:08:18;21.40;99.90
19755;DHT22;10036;47.812;9.274;2023-06-19T08:10:45;21.50;99.90
19755;DHT22;10036;47.812;9.274;2023-06-19T08:13:13;21.40;99.90
19755;DHT22;10036;47.812;9.274;2023-06-19T08:15:40;21.40;99.90
19755;DHT22;10036;47.812;9.274;2023-06-19T08:18:07;21.50;99.90
19755;DHT22;10036;47.812;9.274;2023-06-19T08:20:34;21.50;99.90
19755;DHT22;10036;47.812;9.274;2023-06-19T08:23:01;21.50;99.90
19755;DHT22;10036;47.812;9.274;2023-06-19T08:25:27;21.50;99.90
19755;DHT22;10036;47.812;9.274;2023-06-19T08:27:54;21.50;99.90
19755;DHT22;10036;47.812;9.274;2023-06-19T08:30:23;21.50;99.90
19755;DHT22;10036;47.812;9.274;2023-06-19T08:32:49;21.50;99.90
19755;DHT22;10036;47.812;9.274;2023-06-19T08:35:16;21.50;99.90
19755;DHT22;10036;47.812;9.274;2023-06-19T08:37:44;21.40;99.90
19755;DHT22;10036;47.812;9.274;2023-06-19T08:40:12;21.30;99.90
19755;DHT22;10036;47.812;9.274;2023-06-19T08:42:39;21.30;99.90
19755;DHT22;10036;47.812;9.274;2023-06-19T08:45:08;21.30;99.90
19755;DHT22;10036;47.812;9.274;2023-06-19T08:47:36;21.40;99.90
19755;DHT22;10036;47.812;9.274;2023-06-19T08:50:04;21.40;99.90
19755;DHT22;10036;47.812;9.274;2023-06-19T08:52:31;21.60;99.90
19755;DHT22;10036;47.812;9.274;2023-06-19T08:54:58;21.60;99.90
19755;DHT22;10036;47.812;9.274;2023-06-19T08:57:33;21.80;99.90
19755;DHT22;10036;47.812;9.274;2023-06-19T09:00:00;22.00;99.90
19755;DHT22;10036;47.812;9.274;2023-06-19T09:02:41;22.10;99.90
19755;DHT22;10036;47.812;9.274;2023-06-19T09:05:13;22.10;99.90
19755;DHT22;10036;47.812;9.274;2023-06-19T09:07:40;22.30;99.90
19755;DHT22;10036;47.812;9.274;2023-06-19T09:10:17;22.40;99.90
19755;DHT22;10036;47.812;9.274;2023-06-19T09:12:44;22.50;99.90
19755;DHT22;10036;47.812;9.274;2023-06-19T09:15:22;22.60;99.90
19755;DHT22;10036;47.812;9.274;2023-06-19T09:18:04;22.60;99.90
19755;DHT22;10036;47.812;9.274;2023-06-19T09:20:32;22.50;99.90
19755;DHT22;10036;47.812;9.274;2023-06-19T09:22:59;22.70;99.90
19755;DHT22;10036;47.812;9.274;2023-06-19T09:25:26;22.90;99.90
19755;DHT22;10036;47.812;9.274;2023-06-19T09:27:53;22.80;99.90
19755;DHT22;10036;47.812;9.274;2023-06-19T09:30:21;22.90;99.90
19755;DHT22;10036;47.812;9.274;2023-06-19T09:32:47;22.90;99.90
19755;DHT22;10036;47.812;9.274;2023-06-19T09:35:16;23.10;99.90
19755;DHT22;10036;47.812;9.274;2023-06-19T09:37:43;23.10;99.90
19755;DHT22;10036;47.812;9.274;2023-06-19T09:40:12;23.10;99.90
19755;DHT22;10036;47.812;9.274;2023-06-19T09:42:40;23.10;99.90
19755;DHT22;10036;47.812;9.274;2023-06-19T09:45:09;23.30;99.90
19755;DHT22;10036;47.812;9.274;2023-06-19T09:47:38;23.70;99.90
19755;DHT22;10036;47.812;9.274;2023-06-19T09:50:06;23.70;99.90
19755;DHT22;10036;47.812;9.274;2023-06-19T09:52:35;23.90;99.90
19755;DHT22;10036;47.812;9.274;2023-06-19T09:55:03;23.80;99.90
19755;DHT22;10036;47.812;9.274;2023-06-19T09:57:31;23.70;99.90
19755;DHT22;10036;47.812;9.274;2023-06-19T09:59:59;23.80;99.90
19755;DHT22;10036;47.812;9.274;2023-06-19T10:02:35;23.90;99.90
19755;DHT22;10036;47.812;9.274;2023-06-19T10:05:04;24.00;99.90
19755;DHT22;10036;47.812;9.274;2023-06-19T10:07:35;24.00;99.90
19755;DHT22;10036;47.812;9.274;2023-06-19T10:10:03;24.20;99.90
19755;DHT22;10036;47.812;9.274;2023-06-19T10:12:39;24.50;99.90
19755;DHT22;10036;47.812;9.274;2023-06-19T10:15:15;24.60;99.90
19755;DHT22;10036;47.812;9.274;2023-06-19T10:17:47;24.70;99.90
19755;DHT22;10036;47.812;9.274;2023-06-19T10:20:22;24.70;99.90
19755;DHT22;10036;47.812;9.274;2023-06-19T10:22:57;24.70;99.90
19755;DHT22;10036;47.812;9.274;2023-06-19T10:25:28;25.10;99.90
19755;DHT22;10036;47.812;9.274;2023-06-19T10:27:55;25.50;99.90
19755;DHT22;10036;47.812;9.274;2023-06-19T10:30:22;25.70;99.90
19755;DHT22;10036;47.812;9.274;2023-06-19T10:32:49;26.00;99.90
19755;DHT22;10036;47.812;9.274;2023-06-19T10:35:17;26.40;99.90
19755;DHT22;10036;47.812;9.274;2023-06-19T10:37:47;26.80;99.90
19755;DHT22;10036;47.812;9.274;2023-06-19T10:40:15;26.90;99.90
19755;DHT22;10036;47.812;9.274;2023-06-19T10:42:42;27.10;99.90
19755;DHT22;10036;47.812;9.274;2023-06-19T10:45:11;27.60;99.90
19755;DHT22;10036;47.812;9.274;2023-06-19T10:47:39;27.70;99.90
19755;DHT22;10036;47.812;9.274;2023-06-19T10:50:10;27.90;99.90
19755;DHT22;10036;47.812;9.274;2023-06-19T10:52:40;27.70;99.90
19755;DHT22;10036;47.812;9.274;2023-06-19T10:55:08;27.70;99.90
19755;DHT22;10036;47.812;9.274;2023-06-19T10:57:37;27.10;99.90
19755;DHT22;10036;47.812;9.274;2023-06-19T11:00:05;27.10;99.90
19755;DHT22;10036;47.812;9.274;2023-06-19T11:02:39;27.00;99.90
19755;DHT22;10036;47.812;9.274;2023-06-19T11:05:09;27.00;99.90
19755;DHT22;10036;47.812;9.274;2023-06-19T11:07:36;27.10;99.90
19755;DHT22;10036;47.812;9.274;2023-06-19T11:10:04;26.90;99.90
19755;DHT22;10036;47.812;9.274;2023-06-19T11:12:31;27.10;99.90
19755;DHT22;10036;47.812;9.274;2023-06-19T11:15:03;27.10;99.90
19755;DHT22;10036;47.812;9.274;2023-06-19T11:17:30;27.20;99.90
19755;DHT22;10036;47.812;9.274;2023-06-19T11:19:57;27.10;99.90
19755;DHT22;10036;47.812;9.274;2023-06-19T11:22:38;27.40;99.90
19755;DHT22;10036;47.812;9.274;2023-06-19T11:25:07;27.30;99.90
19755;DHT22;10036;47.812;9.274;2023-06-19T11:27:37;27.30;99.90
19755;DHT22;10036;47.812;9.274;2023-06-19T11:30:07;27.40;99.90
19755;DHT22;10036;47.812;9.274;2023-06-19T11:32:36;27.30;99.90
19755;DHT22;10036;47.812;9.274;2023-06-19T11:35:08;27.40;99.90
19755;DHT22;10036;47.812;9.274;2023-06-19T11:37:37;27.50;99.90
19755;DHT22;10036;47.812;9.274;2023-06-19T11:40:04;27.60;99.90
19755;DHT22;10036;47.812;9.274;2023-06-19T11:42:48;27.50;99.90
19755;DHT22;10036;47.812;9.274;2023-06-19T11:45:16;27.60;99.90
19755;DHT22;10036;47.812;9.274;2023-06-19T11:47:44;27.60;99.90
19755;DHT22;10036;47.812;9.274;2023-06-19T11:50:12;27.60;99.90
19755;DHT22;10036;47.812;9.274;2023-06-19T11:52:42;27.40;99.90
19755;DHT22;10036;47.812;9.274;2023-06-19T11:55:09;27.60;99.90
19755;DHT22;10036;47.812;9.274;2023-06-19T11:57:37;27.70;99.90
19755;DHT22;10036;47.812;9.274;2023-06-19T12:00:16;27.80;99.90
19755;DHT22;10036;47.812;9.274;2023-06-19T12:02:44;27.90;99.90
19755;DHT22;10036;47.812;9.274;2023-06-19T12:05:12;27.90;99.90
19755;DHT22;10036;47.812;9.274;2023-06-19T12:07:39;27.90;99.90
19755;DHT22;10036;47.812;9.274;2023-06-19T12:10:07;28.10;99.90
19755;DHT22;10036;47.812;9.274;2023-06-19T12:12:37;28.20;99.90
19755;DHT22;10036;47.812;9.274;2023-06-19T12:15:05;28.30;99.90
19755;DHT22;10036;47.812;9.274;2023-06-19T12:17:33;28.60;99.90
19755;DHT22;10036;47.812;9.274;2023-06-19T12:20:01;28.20;99.90
19755;DHT22;10036;47.812;9.274;2023-06-19T12:22:31;28.20;99.90
19755;DHT22;10036;47.812;9.274;2023-06-19T12:24:57;28.20;99.90
19755;DHT22;10036;47.812;9.274;2023-06-19T12:27:24;28.20;99.90
19755;DHT22;10036;47.812;9.274;2023-06-19T12:29:51;28.30;99.90
19755;DHT22;10036;47.812;9.274;2023-06-19T12:32:18;28.30;99.90
19755;DHT22;10036;47.812;9.274;2023-06-19T12:34:48;28.30;99.90
19755;DHT22;10036;47.812;9.274;2023-06-19T12:37:15;28.20;99.90
19755;DHT22;10036;47.812;9.274;2023-06-19T12:39:43;28.30;99.90
19755;DHT22;10036;47.812;9.274;2023-06-19T12:42:10;28.50;99.90
19755;DHT22;10036;47.812;9.274;2023-06-19T12:44:38;28.50;99.90
19755;DHT22;10036;47.812;9.274;2023-06-19T12:47:06;28.50;99.90
19755;DHT22;10036;47.812;9.274;2023-06-19T12:49:33;28.50;99.90
19755;DHT22;10036;47.812;9.274;2023-06-19T12:52:02;28.50;99.90
19755;DHT22;10036;47.812;9.274;2023-06-19T12:54:29;28.30;99.90
19755;DHT22;10036;47.812;9.274;2023-06-19T12:56:57;28.50;99.90
19755;DHT22;10036;47.812;9.274;2023-06-19T12:59:24;28.70;99.90
19755;DHT22;10036;47.812;9.274;2023-06-19T13:01:51;28.80;99.90
19755;DHT22;10036;47.812;9.274;2023-06-19T13:04:17;28.60;99.90
19755;DHT22;10036;47.812;9.274;2023-06-19T13:06:44;28.80;99.60
19755;DHT22;10036;47.812;9.274;2023-06-19T13:09:12;28.90;99.60
19755;DHT22;10036;47.812;9.274;2023-06-19T13:11:39;28.90;99.10
19755;DHT22;10036;47.812;9.274;2023-06-19T13:14:06;29.10;99.80
19755;DHT22;10036;47.812;9.274;2023-06-19T13:16:33;29.00;99.30
19755;DHT22;10036;47.812;9.274;2023-06-19T13:19:00;28.90;99.50
19755;DHT22;10036;47.812;9.274;2023-06-19T13:21:27;29.30;99.30
19755;DHT22;10036;47.812;9.274;2023-06-19T13:23:54;29.30;98.20
19755;DHT22;10036;47.812;9.274;2023-06-19T13:26:22;29.60;98.50
19755;DHT22;10036;47.812;9.274;2023-06-19T13:28:49;29.70;97.30
19755;DHT22;10036;47.812;9.274;2023-06-19T13:31:17;29.70;96.00
19755;DHT22;10036;47.812;9.274;2023-06-19T13:33:44;29.70;95.60
19755;DHT22;10036;47.812;9.274;2023-06-19T13:36:10;29.90;96.30
19755;DHT22;10036;47.812;9.274;2023-06-19T13:38:37;29.60;95.70
19755;DHT22;10036;47.812;9.274;2023-06-19T13:41:04;29.30;96.90
19755;DHT22;10036;47.812;9.274;2023-06-19T13:43:33;29.60;98.00
19755;DHT22;10036;47.812;9.274;2023-06-19T13:45:59;30.00;96.60
19755;DHT22;10036;47.812;9.274;2023-06-19T13:48:28;29.80;96.30
19755;DHT22;10036;47.812;9.274;2023-06-19T13:50:55;30.40;95.50
19755;DHT22;10036;47.812;9.274;2023-06-19T13:53:23;30.70;96.10
19755;DHT22;10036;47.812;9.274;2023-06-19T13:55:50;30.90;94.60
19755;DHT22;10036;47.812;9.274;2023-06-19T13:58:17;30.60;93.90
19755;DHT22;10036;47.812;9.274;2023-06-19T14:00:45;30.30;94.20
19755;DHT22;10036;47.812;9.274;2023-06-19T14:03:12;30.30;95.00
19755;DHT22;10036;47.812;9.274;2023-06-19T14:05:39;30.20;94.40
19755;DHT22;10036;47.812;9.274;2023-06-19T14:08:06;30.10;94.40
19755;DHT22;10036;47.812;9.274;2023-06-19T14:10:34;30.00;94.70
19755;DHT22;10036;47.812;9.274;2023-06-19T14:13:01;29.60;95.40
19755;DHT22;10036;47.812;9.274;2023-06-19T14:15:28;29.40;94.60
19755;DHT22;10036;47.812;9.274;2023-06-19T14:17:56;29.50;94.70
19755;DHT22;10036;47.812;9.274;2023-06-19T14:20:23;29.80;94.50
19755;DHT22;10036;47.812;9.274;2023-06-19T14:22:50;30.20;94.00
19755;DHT22;10036;47.812;9.274;2023-06-19T14:25:16;30.00;94.10
19755;DHT22;10036;47.812;9.274;2023-06-19T14:27:43;29.80;94.10
19755;DHT22;10036;47.812;9.274;2023-06-19T14:30:11;30.00;93.80
19755;DHT22;10036;47.812;9.274;2023-06-19T14:32:37;29.70;93.80
19755;DHT22;10036;47.812;9.274;2023-06-19T14:35:07;29.50;94.40
19755;DHT22;10036;47.812;9.274;2023-06-19T14:37:33;29.60;94.60
19755;DHT22;10036;47.812;9.274;2023-06-19T14:40:00;29.50;95.00
19755;DHT22;10036;47.812;9.274;2023-06-19T14:42:27;29.30;94.50
19755;DHT22;10036;47.812;9.274;2023-06-19T14:44:54;29.50;95.10
19755;DHT22;10036;47.812;9.274;2023-06-19T14:47:21;29.60;95.80
19755;DHT22;10036;47.812;9.274;2023-06-19T14:49:49;29.80;95.40
19755;DHT22;10036;47.812;9.274;2023-06-19T14:52:19;30.10;95.40
19755;DHT22;10036;47.812;9.274;2023-06-19T14:54:46;30.50;95.10
19755;DHT22;10036;47.812;9.274;2023-06-19T14:57:13;30.90;94.30
19755;DHT22;10036;47.812;9.274;2023-06-19T14:59:40;31.10;94.40
19755;DHT22;10036;47.812;9.274;2023-06-19T15:02:07;31.00;94.10
19755;DHT22;10036;47.812;9.274;2023-06-19T15:04:35;30.40;94.50
19755;DHT22;10036;47.812;9.274;2023-06-19T15:07:01;30.40;94.70
19755;DHT22;10036;47.812;9.274;2023-06-19T15:09:30;30.80;94.30
19755;DHT22;10036;47.812;9.274;2023-06-19T15:11:57;30.70;93.90
19755;DHT22;10036;47.812;9.274;2023-06-19T15:14:24;30.80;93.50
19755;DHT22;10036;47.812;9.274;2023-06-19T15:16:51;30.60;94.00
19755;DHT22;10036;47.812;9.274;2023-06-19T15:19:17;30.60;93.60
19755;DHT22;10036;47.812;9.274;2023-06-19T15:21:44;29.90;93.30
19755;DHT22;10036;47.812;9.274;2023-06-19T15:24:11;30.10;93.20
19755;DHT22;10036;47.812;9.274;2023-06-19T15:26:39;30.10;93.30
19755;DHT22;10036;47.812;9.274;2023-06-19T15:29:06;30.00;93.10
19755;DHT22;10036;47.812;9.274;2023-06-19T15:31:33;30.20;93.60
19755;DHT22;10036;47.812;9.274;2023-06-19T15:34:01;30.30;93.90